sensor_id;sensor_type;location;lat;lon;timestamp;pressure;altitude;pressure_sealevel;temperature;humidity
35023;BME280;21214;44.912;8.204;2023-04-25T00:01:46;98780.44;;;12.47;49.41
35023;BME280;21214;44.912;8.204;2023-04-25T00:04:12;98777.13;;;12.45;49.00
35023;BME280;21214;44.912;8.204;2023-04-25T00:09:35;98772.88;;;12.36;49.65
35023;BME280;21214;44.912;8.204;2023-04-25T00:12:00;98775.91;;;12.25;50.08
35023;BME280;21214;44.912;8.204;2023-04-25T00:14:26;98782.59;;;12.05;49.88
35023;BME280;21214;44.912;8.204;2023-04-25T00:16:53;98771.66;;;12.16;48.53
35023;BME280;21214;44.912;8.204;2023-04-25T00:19:19;98772.25;;;12.26;48.33
35023;BME280;21214;44.912;8.204;2023-04-25T00:21:45;98770.28;;;12.28;48.34
35023;BME280;21214;44.912;8.204;2023-04-25T00:24:12;98772.91;;;12.28;48.64
35023;BME280;21214;44.912;8.204;2023-04-25T00:26:38;98772.38;;;12.32;48.43
35023;BME280;21214;44.912;8.204;2023-04-25T00:29:03;98770.03;;;12.38;49.01
35023;BME280;21214;44.912;8.204;2023-04-25T00:31:28;98770.88;;;12.38;48.53
35023;BME280;21214;44.912;8.204;2023-04-25T00:33:54;98763.03;;;12.22;48.82
35023;BME280;21214;44.912;8.204;2023-04-25T00:36:19;98766.34;;;12.24;49.60
35023;BME280;21214;44.912;8.204;2023-04-25T00:38:45;98759.69;;;12.28;49.75
35023;BME280;21214;44.912;8.204;2023-04-25T00:41:10;98759.03;;;12.26;50.28
35023;BME280;21214;44.912;8.204;2023-04-25T00:43:36;98770.19;;;12.05;51.62
35023;BME280;21214;44.912;8.204;2023-04-25T00:46:02;98778.06;;;11.74;53.80
35023;BME280;21214;44.912;8.204;2023-04-25T00:48:28;98792.25;;;11.73;54.04
35023;BME280;21214;44.912;8.204;2023-04-25T00:50:54;98782.69;;;11.64;55.89
35023;BME280;21214;44.912;8.204;2023-04-25T00:53:20;98789.63;;;11.73;56.11
35023;BME280;21214;44.912;8.204;2023-04-25T00:55:46;98788.94;;;11.71;56.58
35023;BME280;21214;44.912;8.204;2023-04-25T00:58:11;98787.28;;;11.70;57.87
35023;BME280;21214;44.912;8.204;2023-04-25T01:00:37;98797.53;;;11.73;57.30
35023;BME280;21214;44.912;8.204;2023-04-25T01:03:03;98792.94;;;11.75;57.34
35023;BME280;21214;44.912;8.204;2023-04-25T01:05:29;98800.34;;;11.72;57.14
35023;BME280;21214;44.912;8.204;2023-04-25T01:07:54;98793.09;;;11.74;56.26
35023;BME280;21214;44.912;8.204;2023-04-25T01:10:20;98794.06;;;11.81;55.40
35023;BME280;21214;44.912;8.204;2023-04-25T01:12:46;98784.31;;;11.81;55.92
35023;BME280;21214;44.912;8.204;2023-04-25T01:15:12;98783.66;;;11.87;56.01
35023;BME280;21214;44.912;8.204;2023-04-25T01:17:38;98793.19;;;11.97;58.36
35023;BME280;21214;44.912;8.204;2023-04-25T01:20:04;98781.25;;;12.09;59.08
35023;BME280;21214;44.912;8.204;2023-04-25T01:22:30;98784.84;;;12.24;61.36
35023;BME280;21214;44.912;8.204;2023-04-25T01:24:56;98783.34;;;12.29;59.64
35023;BME280;21214;44.912;8.204;2023-04-25T01:27:21;98783.47;;;12.36;59.92
35023;BME280;21214;44.912;8.204;2023-04-25T01:29:47;98794.53;;;12.40;58.25
35023;BME280;21214;44.912;8.204;2023-04-25T01:32:14;98790.59;;;12.36;56.35
35023;BME280;21214;44.912;8.204;2023-04-25T01:34:39;98800.44;;;12.11;55.42
35023;BME280;21214;44.912;8.204;2023-04-25T01:37:05;98798.44;;;12.13;55.27
35023;BME280;21214;44.912;8.204;2023-04-25T01:39:30;98800.72;;;12.24;54.69
35023;BME280;21214;44.912;8.204;2023-04-25T01:41:55;98806.34;;;12.21;55.19
35023;BME280;21214;44.912;8.204;2023-04-25T01:44:23;98800.34;;;12.27;55.13
35023;BME280;21214;44.912;8.204;2023-04-25T01:46:48;98803.16;;;12.25;56.67
35023;BME280;21214;44.912;8.204;2023-04-25T01:49:13;98800.34;;;12.27;57.07
35023;BME280;21214;44.912;8.204;2023-04-25T01:51:41;98799.88;;;12.23;58.67
35023;BME280;21214;44.912;8.204;2023-04-25T01:54:07;98804.00;;;12.26;58.09
35023;BME280;21214;44.912;8.204;2023-04-25T01:56:33;98795.44;;;12.24;58.37
35023;BME280;21214;44.912;8.204;2023-04-25T01:59:03;98797.41;;;12.22;58.16
35023;BME280;21214;44.912;8.204;2023-04-25T02:01:34;98795.47;;;12.08;59.26
35023;BME280;21214;44.912;8.204;2023-04-25T02:04:15;98798.63;;;12.03;60.02
35023;BME280;21214;44.912;8.204;2023-04-25T02:06:40;98794.78;;;12.14;59.49
35023;BME280;21214;44.912;8.204;2023-04-25T02:09:07;98793.84;;;12.07;61.23
35023;BME280;21214;44.912;8.204;2023-04-25T02:11:32;98807.59;;;11.94;62.54
35023;BME280;21214;44.912;8.204;2023-04-25T02:14:16;98802.00;;;11.81;63.64
35023;BME280;21214;44.912;8.204;2023-04-25T02:16:51;98792.25;;;11.57;64.64
35023;BME280;21214;44.912;8.204;2023-04-25T02:19:17;98793.59;;;11.45;66.87
35023;BME280;21214;44.912;8.204;2023-04-25T02:21:42;98804.97;;;11.62;64.53
35023;BME280;21214;44.912;8.204;2023-04-25T02:24:10;98805.16;;;11.60;64.22
35023;BME280;21214;44.912;8.204;2023-04-25T02:26:35;98817.69;;;11.50;64.09
35023;BME280;21214;44.912;8.204;2023-04-25T02:29:00;98815.56;;;11.37;65.06
35023;BME280;21214;44.912;8.204;2023-04-25T02:31:26;98809.47;;;11.13;66.46
35023;BME280;21214;44.912;8.204;2023-04-25T02:33:51;98812.56;;;11.08;67.05
35023;BME280;21214;44.912;8.204;2023-04-25T02:36:17;98818.94;;;10.73;72.38
35023;BME280;21214;44.912;8.204;2023-04-25T02:38:42;98813.34;;;10.68;73.58
35023;BME280;21214;44.912;8.204;2023-04-25T02:41:07;98810.22;;;10.73;74.19
35023;BME280;21214;44.912;8.204;2023-04-25T02:43:33;98810.25;;;10.81;72.97
35023;BME280;21214;44.912;8.204;2023-04-25T02:45:58;98813.06;;;10.87;73.28
35023;BME280;21214;44.912;8.204;2023-04-25T02:48:23;98806.16;;;10.94;73.19
35023;BME280;21214;44.912;8.204;2023-04-25T02:50:48;98803.16;;;10.97;73.52
35023;BME280;21214;44.912;8.204;2023-04-25T02:53:14;98804.16;;;10.96;74.67
35023;BME280;21214;44.912;8.204;2023-04-25T02:55:45;98798.53;;;10.83;75.31
35023;BME280;21214;44.912;8.204;2023-04-25T02:58:10;98797.06;;;10.89;75.17
35023;BME280;21214;44.912;8.204;2023-04-25T03:00:54;98799.84;;;10.87;75.21
35023;BME280;21214;44.912;8.204;2023-04-25T03:03:20;98796.06;;;10.90;75.29
35023;BME280;21214;44.912;8.204;2023-04-25T03:05:49;98806.63;;;10.82;76.30
35023;BME280;21214;44.912;8.204;2023-04-25T03:08:18;98800.47;;;10.73;77.27
35023;BME280;21214;44.912;8.204;2023-04-25T03:10:44;98810.28;;;10.39;81.65
35023;BME280;21214;44.912;8.204;2023-04-25T03:13:10;98805.91;;;9.88;86.57
35023;BME280;21214;44.912;8.204;2023-04-25T03:15:36;98815.81;;;9.68;89.22
35023;BME280;21214;44.912;8.204;2023-04-25T03:18:01;98811.91;;;9.72;89.13
35023;BME280;21214;44.912;8.204;2023-04-25T03:20:27;98823.25;;;9.72;87.73
35023;BME280;21214;44.912;8.204;2023-04-25T03:22:53;98826.56;;;9.74;84.05
35023;BME280;21214;44.912;8.204;2023-04-25T03:25:18;98828.66;;;9.89;82.96
35023;BME280;21214;44.912;8.204;2023-04-25T03:27:45;98835.03;;;9.86;83.90
35023;BME280;21214;44.912;8.204;2023-04-25T03:30:10;98834.00;;;9.79;84.29
35023;BME280;21214;44.912;8.204;2023-04-25T03:32:37;98824.34;;;9.88;83.51
35023;BME280;21214;44.912;8.204;2023-04-25T03:35:02;98818.63;;;9.92;84.67
35023;BME280;21214;44.912;8.204;2023-04-25T03:37:30;98824.09;;;9.99;86.16
35023;BME280;21214;44.912;8.204;2023-04-25T03:39:55;98819.94;;;9.96;89.14
35023;BME280;21214;44.912;8.204;2023-04-25T03:42:23;98820.56;;;9.90;90.29
35023;BME280;21214;44.912;8.204;2023-04-25T03:44:49;98826.22;;;9.95;90.28
35023;BME280;21214;44.912;8.204;2023-04-25T03:47:14;98826.22;;;9.95;90.20
35023;BME280;21214;44.912;8.204;2023-04-25T03:49:40;98831.69;;;9.76;92.73
35023;BME280;21214;44.912;8.204;2023-04-25T03:52:05;98834.84;;;9.54;94.85
35023;BME280;21214;44.912;8.204;2023-04-25T03:54:37;98827.59;;;9.56;94.91
35023;BME280;21214;44.912;8.204;2023-04-25T03:57:12;98830.91;;;9.58;93.62
35023;BME280;21214;44.912;8.204;2023-04-25T03:59:38;98828.63;;;9.63;91.61
35023;BME280;21214;44.912;8.204;2023-04-25T04:02:05;98829.03;;;9.50;88.30
35023;BME280;21214;44.912;8.204;2023-04-25T04:04:33;98837.09;;;9.49;87.72
35023;BME280;21214;44.912;8.204;2023-04-25T04:06:59;98842.63;;;9.20;84.51
35023;BME280;21214;44.912;8.204;2023-04-25T04:09:28;98851.50;;;9.36;84.54
35023;BME280;21214;44.912;8.204;2023-04-25T04:11:55;98842.84;;;9.26;83.22
35023;BME280;21214;44.912;8.204;2023-04-25T04:14:20;98850.81;;;9.34;81.91
35023;BME280;21214;44.912;8.204;2023-04-25T04:16:47;98845.09;;;9.21;82.96
35023;BME280;21214;44.912;8.204;2023-04-25T04:19:14;98841.34;;;9.06;84.04
35023;BME280;21214;44.912;8.204;2023-04-25T04:21:45;98851.56;;;9.09;84.94
35023;BME280;21214;44.912;8.204;2023-04-25T04:24:10;98855.78;;;9.02;86.55
35023;BME280;21214;44.912;8.204;2023-04-25T04:26:48;98858.81;;;9.07;86.88
35023;BME280;21214;44.912;8.204;2023-04-25T04:29:31;98854.06;;;9.11;86.93
35023;BME280;21214;44.912;8.204;2023-04-25T04:32:05;98855.19;;;9.08;87.61
35023;BME280;21214;44.912;8.204;2023-04-25T04:34:32;98856.38;;;8.96;88.75
35023;BME280;21214;44.912;8.204;2023-04-25T04:36:59;98854.06;;;8.93;87.99
35023;BME280;21214;44.912;8.204;2023-04-25T04:39:25;98861.03;;;9.02;87.90
35023;BME280;21214;44.912;8.204;2023-04-25T04:42:02;98850.97;;;9.15;87.41
35023;BME280;21214;44.912;8.204;2023-04-25T04:44:39;98858.13;;;9.23;88.04
35023;BME280;21214;44.912;8.204;2023-04-25T04:47:41;98859.91;;;9.22;88.37
35023;BME280;21214;44.912;8.204;2023-04-25T04:50:26;98863.16;;;9.16;88.98
35023;BME280;21214;44.912;8.204;2023-04-25T04:53:11;98853.69;;;9.23;89.15
35023;BME280;21214;44.912;8.204;2023-04-25T04:55:37;98857.75;;;9.35;90.00
35023;BME280;21214;44.912;8.204;2023-04-25T04:58:28;98856.22;;;8.97;95.34
35023;BME280;21214;44.912;8.204;2023-04-25T05:01:19;98861.56;;;8.88;96.20
35023;BME280;21214;44.912;8.204;2023-04-25T05:04:14;98876.22;;;9.08;96.82
35023;BME280;21214;44.912;8.204;2023-04-25T05:06:39;98882.56;;;9.15;97.11
35023;BME280;21214;44.912;8.204;2023-04-25T05:09:37;98877.28;;;9.15;96.64
35023;BME280;21214;44.912;8.204;2023-04-25T05:12:19;98879.03;;;9.24;95.22
35023;BME280;21214;44.912;8.204;2023-04-25T05:14:58;98877.16;;;9.34;95.33
35023;BME280;21214;44.912;8.204;2023-04-25T05:17:56;98882.41;;;9.34;94.47
35023;BME280;21214;44.912;8.204;2023-04-25T05:20:40;98877.19;;;9.25;95.68
35023;BME280;21214;44.912;8.204;2023-04-25T05:23:34;98875.25;;;9.27;94.71
35023;BME280;21214;44.912;8.204;2023-04-25T05:26:18;98874.56;;;9.42;94.69
35023;BME280;21214;44.912;8.204;2023-04-25T05:29:02;98880.88;;;9.50;95.08
35023;BME280;21214;44.912;8.204;2023-04-25T05:31:36;98883.88;;;9.55;97.29
35023;BME280;21214;44.912;8.204;2023-04-25T05:34:08;98887.59;;;9.44;99.76
35023;BME280;21214;44.912;8.204;2023-04-25T05:36:52;98886.47;;;9.47;100.00
35023;BME280;21214;44.912;8.204;2023-04-25T05:39:18;98891.00;;;9.54;100.00
35023;BME280;21214;44.912;8.204;2023-04-25T05:42:02;98889.91;;;9.65;100.00
35023;BME280;21214;44.912;8.204;2023-04-25T05:44:47;98883.72;;;9.74;100.00
35023;BME280;21214;44.912;8.204;2023-04-25T05:47:28;98875.00;;;9.56;100.00
35023;BME280;21214;44.912;8.204;2023-04-25T05:50:15;98883.06;;;9.72;100.00
35023;BME280;21214;44.912;8.204;2023-04-25T05:52:55;98881.66;;;9.85;100.00
35023;BME280;21214;44.912;8.204;2023-04-25T05:55:28;98877.78;;;9.98;100.00
35023;BME280;21214;44.912;8.204;2023-04-25T05:57:54;98878.38;;;9.83;100.00
35023;BME280;21214;44.912;8.204;2023-04-25T06:00:19;98884.81;;;9.89;100.00
35023;BME280;21214;44.912;8.204;2023-04-25T06:02:47;98892.81;;;10.05;100.00
35023;BME280;21214;44.912;8.204;2023-04-25T06:05:13;98895.72;;;9.94;100.00
35023;BME280;21214;44.912;8.204;2023-04-25T06:07:39;98897.00;;;10.16;100.00
35023;BME280;21214;44.912;8.204;2023-04-25T06:10:04;98900.91;;;10.30;97.13
35023;BME280;21214;44.912;8.204;2023-04-25T06:12:34;98895.00;;;10.36;96.55
35023;BME280;21214;44.912;8.204;2023-04-25T06:15:00;98901.84;;;10.20;97.96
35023;BME280;21214;44.912;8.204;2023-04-25T06:17:26;98897.38;;;10.21;97.40
35023;BME280;21214;44.912;8.204;2023-04-25T06:19:51;98884.34;;;10.19;98.70
35023;BME280;21214;44.912;8.204;2023-04-25T06:22:17;98891.69;;;10.34;97.98
35023;BME280;21214;44.912;8.204;2023-04-25T06:24:42;98887.13;;;10.44;98.51
35023;BME280;21214;44.912;8.204;2023-04-25T06:27:08;98888.88;;;10.69;97.56
35023;BME280;21214;44.912;8.204;2023-04-25T06:29:33;98887.63;;;10.89;97.31
35023;BME280;21214;44.912;8.204;2023-04-25T06:31:58;98877.75;;;10.99;98.59
35023;BME280;21214;44.912;8.204;2023-04-25T06:34:24;98877.63;;;11.17;97.88
35023;BME280;21214;44.912;8.204;2023-04-25T06:36:49;98873.84;;;11.36;97.54
35023;BME280;21214;44.912;8.204;2023-04-25T06:39:15;98866.41;;;11.39;99.04
35023;BME280;21214;44.912;8.204;2023-04-25T06:41:41;98871.53;;;11.57;98.77
35023;BME280;21214;44.912;8.204;2023-04-25T06:44:13;98866.78;;;11.77;98.48
35023;BME280;21214;44.912;8.204;2023-04-25T06:46:50;98868.41;;;11.94;98.62
35023;BME280;21214;44.912;8.204;2023-04-25T06:49:15;98875.47;;;12.10;97.03
35023;BME280;21214;44.912;8.204;2023-04-25T06:51:41;98874.78;;;12.08;97.84
35023;BME280;21214;44.912;8.204;2023-04-25T06:54:07;98866.81;;;12.32;97.25
35023;BME280;21214;44.912;8.204;2023-04-25T06:56:42;98869.44;;;12.40;99.43
35023;BME280;21214;44.912;8.204;2023-04-25T06:59:12;98876.75;;;12.30;100.00
35023;BME280;21214;44.912;8.204;2023-04-25T07:01:40;98871.03;;;12.49;99.27
35023;BME280;21214;44.912;8.204;2023-04-25T07:04:14;98863.47;;;12.46;100.00
35023;BME280;21214;44.912;8.204;2023-04-25T07:06:48;98863.47;;;12.46;100.00
35023;BME280;21214;44.912;8.204;2023-04-25T07:09:16;98861.69;;;12.69;100.00
35023;BME280;21214;44.912;8.204;2023-04-25T07:11:45;98862.00;;;12.75;100.00
35023;BME280;21214;44.912;8.204;2023-04-25T07:14:10;98857.66;;;12.82;100.00
35023;BME280;21214;44.912;8.204;2023-04-25T07:16:36;98864.06;;;12.95;100.00
35023;BME280;21214;44.912;8.204;2023-04-25T07:19:01;98862.81;;;13.06;100.00
35023;BME280;21214;44.912;8.204;2023-04-25T07:21:27;98863.13;;;13.11;100.00
35023;BME280;21214;44.912;8.204;2023-04-25T07:23:53;98849.25;;;13.32;100.00
35023;BME280;21214;44.912;8.204;2023-04-25T07:26:24;98859.91;;;13.46;100.00
35023;BME280;21214;44.912;8.204;2023-04-25T07:29:08;98854.94;;;13.43;100.00
35023;BME280;21214;44.912;8.204;2023-04-25T07:31:33;98847.22;;;13.57;100.00
35023;BME280;21214;44.912;8.204;2023-04-25T07:33:59;98850.75;;;13.72;100.00
35023;BME280;21214;44.912;8.204;2023-04-25T07:36:24;98857.91;;;13.86;100.00
35023;BME280;21214;44.912;8.204;2023-04-25T07:38:51;98855.78;;;13.81;100.00
35023;BME280;21214;44.912;8.204;2023-04-25T07:41:16;98864.84;;;13.87;100.00
35023;BME280;21214;44.912;8.204;2023-04-25T07:43:43;98856.44;;;13.98;100.00
35023;BME280;21214;44.912;8.204;2023-04-25T07:46:09;98866.06;;;14.14;100.00
35023;BME280;21214;44.912;8.204;2023-04-25T07:48:34;98856.03;;;14.24;100.00
35023;BME280;21214;44.912;8.204;2023-04-25T07:51:01;98856.69;;;14.41;100.00
35023;BME280;21214;44.912;8.204;2023-04-25T07:53:26;98848.25;;;14.52;100.00
35023;BME280;21214;44.912;8.204;2023-04-25T07:55:57;98854.47;;;14.59;100.00
35023;BME280;21214;44.912;8.204;2023-04-25T07:58:22;98849.16;;;14.59;100.00
35023;BME280;21214;44.912;8.204;2023-04-25T08:00:52;98855.81;;;14.69;100.00
35023;BME280;21214;44.912;8.204;2023-04-25T08:03:36;98852.53;;;14.67;100.00
35023;BME280;21214;44.912;8.204;2023-04-25T08:06:05;98848.31;;;14.73;100.00
35023;BME280;21214;44.912;8.204;2023-04-25T08:08:35;98842.00;;;14.74;100.00
35023;BME280;21214;44.912;8.204;2023-04-25T08:11:03;98853.78;;;14.86;100.00
35023;BME280;21214;44.912;8.204;2023-04-25T08:13:28;98852.69;;;14.81;100.00
35023;BME280;21214;44.912;8.204;2023-04-25T08:15:54;98849.19;;;14.95;100.00
35023;BME280;21214;44.912;8.204;2023-04-25T08:18:21;98854.94;;;14.98;100.00
35023;BME280;21214;44.912;8.204;2023-04-25T08:20:48;98851.53;;;15.04;100.00
35023;BME280;21214;44.912;8.204;2023-04-25T08:23:14;98848.13;;;15.10;100.00
35023;BME280;21214;44.912;8.204;2023-04-25T08:25:51;98844.13;;;15.21;100.00
35023;BME280;21214;44.912;8.204;2023-04-25T08:28:20;98849.75;;;15.33;100.00
35023;BME280;21214;44.912;8.204;2023-04-25T08:30:46;98850.78;;;15.32;100.00
35023;BME280;21214;44.912;8.204;2023-04-25T08:33:19;98835.22;;;15.29;100.00
35023;BME280;21214;44.912;8.204;2023-04-25T08:36:04;98840.72;;;15.48;100.00
35023;BME280;21214;44.912;8.204;2023-04-25T08:38:31;98836.81;;;15.66;100.00
35023;BME280;21214;44.912;8.204;2023-04-25T08:40:56;98835.50;;;15.83;100.00
35023;BME280;21214;44.912;8.204;2023-04-25T08:43:22;98835.16;;;15.92;100.00
35023;BME280;21214;44.912;8.204;2023-04-25T08:45:48;98835.44;;;16.04;100.00
35023;BME280;21214;44.912;8.204;2023-04-25T08:48:28;98838.78;;;16.13;100.00
35023;BME280;21214;44.912;8.204;2023-04-25T08:50:57;98843.25;;;16.06;100.00
35023;BME280;21214;44.912;8.204;2023-04-25T08:53:31;98846.13;;;16.11;100.00
35023;BME280;21214;44.912;8.204;2023-04-25T08:56:00;98841.91;;;16.23;100.00
35023;BME280;21214;44.912;8.204;2023-04-25T08:58:27;98836.81;;;16.28;100.00
35023;BME280;21214;44.912;8.204;2023-04-25T09:00:53;98833.50;;;16.19;100.00
35023;BME280;21214;44.912;8.204;2023-04-25T09:03:21;98836.78;;;16.21;100.00
35023;BME280;21214;44.912;8.204;2023-04-25T09:05:47;98836.44;;;16.31;100.00
35023;BME280;21214;44.912;8.204;2023-04-25T09:08:14;98833.59;;;16.39;100.00
35023;BME280;21214;44.912;8.204;2023-04-25T09:10:41;98831.97;;;16.45;100.00
35023;BME280;21214;44.912;8.204;2023-04-25T09:15:56;98836.53;;;16.57;100.00
35023;BME280;21214;44.912;8.204;2023-04-25T09:18:34;98837.03;;;16.61;99.71
35023;BME280;21214;44.912;8.204;2023-04-25T09:21:08;98831.69;;;16.67;98.92
35023;BME280;21214;44.912;8.204;2023-04-25T09:23:45;98837.50;;;16.77;98.08
35023;BME280;21214;44.912;8.204;2023-04-25T09:26:15;98834.22;;;16.82;96.87
35023;BME280;21214;44.912;8.204;2023-04-25T09:28:43;98837.28;;;16.86;96.72
35023;BME280;21214;44.912;8.204;2023-04-25T09:31:12;98835.47;;;16.93;96.21
35023;BME280;21214;44.912;8.204;2023-04-25T09:33:44;98832.19;;;16.91;95.50
35023;BME280;21214;44.912;8.204;2023-04-25T09:36:10;98838.56;;;16.90;93.84
35023;BME280;21214;44.912;8.204;2023-04-25T09:38:55;98828.50;;;16.92;91.28
35023;BME280;21214;44.912;8.204;2023-04-25T09:41:25;98830.78;;;16.95;90.00
35023;BME280;21214;44.912;8.204;2023-04-25T09:43:56;98823.19;;;16.98;87.58
35023;BME280;21214;44.912;8.204;2023-04-25T09:46:21;98832.22;;;17.04;86.27
35023;BME280;21214;44.912;8.204;2023-04-25T09:48:54;98828.75;;;17.10;84.52
35023;BME280;21214;44.912;8.204;2023-04-25T09:51:29;98830.22;;;17.19;83.04
35023;BME280;21214;44.912;8.204;2023-04-25T09:53:57;98831.25;;;17.25;84.81
35023;BME280;21214;44.912;8.204;2023-04-25T09:56:30;98825.28;;;17.23;86.19
35023;BME280;21214;44.912;8.204;2023-04-25T09:59:03;98832.25;;;17.10;84.37
35023;BME280;21214;44.912;8.204;2023-04-25T10:01:29;98827.72;;;17.11;84.65
35023;BME280;21214;44.912;8.204;2023-04-25T10:04:05;98828.97;;;17.15;86.90
35023;BME280;21214;44.912;8.204;2023-04-25T10:07:07;98839.25;;;17.18;86.81
35023;BME280;21214;44.912;8.204;2023-04-25T10:09:33;98831.88;;;17.33;85.46
35023;BME280;21214;44.912;8.204;2023-04-25T10:11:59;98833.09;;;17.44;83.38
35023;BME280;21214;44.912;8.204;2023-04-25T10:14:25;98828.59;;;17.44;79.83
35023;BME280;21214;44.912;8.204;2023-04-25T10:16:50;98829.63;;;17.43;79.79
35023;BME280;21214;44.912;8.204;2023-04-25T10:19:19;98826.16;;;17.49;80.29
35023;BME280;21214;44.912;8.204;2023-04-25T10:21:46;98834.75;;;17.58;78.70
35023;BME280;21214;44.912;8.204;2023-04-25T10:24:13;98834.81;;;17.65;75.72
35023;BME280;21214;44.912;8.204;2023-04-25T10:26:39;98831.94;;;17.73;75.89
35023;BME280;21214;44.912;8.204;2023-04-25T10:29:05;98833.16;;;17.83;74.89
35023;BME280;21214;44.912;8.204;2023-04-25T10:31:30;98831.50;;;17.89;73.97
35023;BME280;21214;44.912;8.204;2023-04-25T10:33:56;98827.38;;;17.99;74.27
35023;BME280;21214;44.912;8.204;2023-04-25T10:36:22;98831.06;;;18.12;74.10
35023;BME280;21214;44.912;8.204;2023-04-25T10:38:48;98827.75;;;18.23;72.73
35023;BME280;21214;44.912;8.204;2023-04-25T10:41:15;98828.94;;;18.33;67.68
35023;BME280;21214;44.912;8.204;2023-04-25T10:43:45;98823.38;;;18.41;67.67
35023;BME280;21214;44.912;8.204;2023-04-25T10:46:17;98819.44;;;18.51;72.41
35023;BME280;21214;44.912;8.204;2023-04-25T10:48:50;98815.53;;;18.60;73.95
35023;BME280;21214;44.912;8.204;2023-04-25T10:51:23;98820.47;;;18.56;69.49
35023;BME280;21214;44.912;8.204;2023-04-25T10:56:20;98816.75;;;18.51;67.55
35023;BME280;21214;44.912;8.204;2023-04-25T10:58:46;98814.94;;;18.45;66.71
35023;BME280;21214;44.912;8.204;2023-04-25T11:01:19;98807.53;;;18.47;68.66
35023;BME280;21214;44.912;8.204;2023-04-25T11:03:44;98805.88;;;18.46;65.40
35023;BME280;21214;44.912;8.204;2023-04-25T11:06:22;98802.19;;;18.47;64.71
35023;BME280;21214;44.912;8.204;2023-04-25T11:08:49;98793.16;;;18.48;64.27
35023;BME280;21214;44.912;8.204;2023-04-25T11:11:16;98794.81;;;18.49;61.57
35023;BME280;21214;44.912;8.204;2023-04-25T11:13:41;98785.72;;;18.50;60.82
35023;BME280;21214;44.912;8.204;2023-04-25T11:16:07;98793.56;;;18.45;58.87
35023;BME280;21214;44.912;8.204;2023-04-25T11:18:33;98787.81;;;18.48;59.81
35023;BME280;21214;44.912;8.204;2023-04-25T11:20:59;98783.31;;;18.55;55.86
35023;BME280;21214;44.912;8.204;2023-04-25T11:23:25;98778.34;;;18.58;52.70
35023;BME280;21214;44.912;8.204;2023-04-25T11:25:51;98776.03;;;18.62;53.05
35023;BME280;21214;44.912;8.204;2023-04-25T11:28:21;98774.16;;;18.69;54.07
35023;BME280;21214;44.912;8.204;2023-04-25T11:30:50;98774.78;;;18.71;52.39
35023;BME280;21214;44.912;8.204;2023-04-25T11:33:15;98770.06;;;18.73;51.66
35023;BME280;21214;44.912;8.204;2023-04-25T11:35:41;98772.47;;;18.81;49.57
35023;BME280;21214;44.912;8.204;2023-04-25T11:38:07;98769.97;;;18.86;49.71
35023;BME280;21214;44.912;8.204;2023-04-25T11:40:32;98768.69;;;18.95;51.78
35023;BME280;21214;44.912;8.204;2023-04-25T11:42:59;98767.38;;;19.04;47.78
35023;BME280;21214;44.912;8.204;2023-04-25T11:45:24;98763.63;;;19.12;48.52
35023;BME280;21214;44.912;8.204;2023-04-25T11:47:50;98766.84;;;19.20;46.53
35023;BME280;21214;44.912;8.204;2023-04-25T11:50:15;98772.56;;;19.31;48.02
35023;BME280;21214;44.912;8.204;2023-04-25T11:52:44;98773.31;;;19.38;46.15
35023;BME280;21214;44.912;8.204;2023-04-25T11:55:12;98772.81;;;19.54;46.92
35023;BME280;21214;44.912;8.204;2023-04-25T11:57:38;98771.09;;;19.59;47.10
35023;BME280;21214;44.912;8.204;2023-04-25T12:00:25;98770.59;;;19.69;46.92
35023;BME280;21214;44.912;8.204;2023-04-25T12:02:54;98772.53;;;19.80;46.43
35023;BME280;21214;44.912;8.204;2023-04-25T12:05:20;98767.22;;;19.98;46.77
35023;BME280;21214;44.912;8.204;2023-04-25T12:07:48;98767.81;;;20.19;46.24
35023;BME280;21214;44.912;8.204;2023-04-25T12:10:14;98773.75;;;20.21;45.11
35023;BME280;21214;44.912;8.204;2023-04-25T12:12:44;98771.19;;;20.32;46.09
35023;BME280;21214;44.912;8.204;2023-04-25T12:17:40;98768.41;;;20.57;45.83
35023;BME280;21214;44.912;8.204;2023-04-25T12:20:10;98768.31;;;20.64;44.25
35023;BME280;21214;44.912;8.204;2023-04-25T12:22:35;98770.03;;;20.76;44.58
35023;BME280;21214;44.912;8.204;2023-04-25T12:25:02;98770.41;;;20.92;43.73
35023;BME280;21214;44.912;8.204;2023-04-25T12:27:30;98776.50;;;20.99;44.25
35023;BME280;21214;44.912;8.204;2023-04-25T12:29:55;98776.50;;;20.99;42.42
35023;BME280;21214;44.912;8.204;2023-04-25T12:32:21;98770.81;;;21.07;41.88
35023;BME280;21214;44.912;8.204;2023-04-25T12:34:47;98765.41;;;21.25;40.85
35023;BME280;21214;44.912;8.204;2023-04-25T12:37:12;98760.19;;;21.42;40.74
35023;BME280;21214;44.912;8.204;2023-04-25T12:39:38;98762.88;;;21.53;40.66
35023;BME280;21214;44.912;8.204;2023-04-25T12:42:03;98764.16;;;21.62;39.46
35023;BME280;21214;44.912;8.204;2023-04-25T12:44:29;98756.69;;;21.76;39.97
35023;BME280;21214;44.912;8.204;2023-04-25T12:46:54;98756.09;;;21.74;39.12
35023;BME280;21214;44.912;8.204;2023-04-25T12:49:20;98751.56;;;21.63;39.27
35023;BME280;21214;44.912;8.204;2023-04-25T12:51:45;98751.56;;;21.63;39.85
35023;BME280;21214;44.912;8.204;2023-04-25T12:54:11;98758.22;;;21.84;39.11
35023;BME280;21214;44.912;8.204;2023-04-25T12:56:37;98755.91;;;21.99;39.07
35023;BME280;21214;44.912;8.204;2023-04-25T12:59:02;98766.31;;;21.95;38.83
35023;BME280;21214;44.912;8.204;2023-04-25T13:01:28;98755.44;;;22.14;39.43
35023;BME280;21214;44.912;8.204;2023-04-25T13:03:53;98752.41;;;22.38;39.69
35023;BME280;21214;44.912;8.204;2023-04-25T13:06:19;98756.03;;;22.56;39.88
35023;BME280;21214;44.912;8.204;2023-04-25T13:08:45;98764.25;;;22.77;40.52
35023;BME280;21214;44.912;8.204;2023-04-25T13:11:10;98758.81;;;22.61;39.04
35023;BME280;21214;44.912;8.204;2023-04-25T13:13:36;98768.81;;;22.37;39.05
35023;BME280;21214;44.912;8.204;2023-04-25T13:16:02;98758.16;;;22.42;39.69
35023;BME280;21214;44.912;8.204;2023-04-25T13:18:28;98763.78;;;22.69;39.09
35023;BME280;21214;44.912;8.204;2023-04-25T13:20:53;98763.66;;;22.75;37.74